createdAt,value
2022-10-01T00:02:17.476Z,13.21
2022-10-01T00:04:47.146Z,13.22
2022-10-01T00:07:16.662Z,13.17
2022-10-01T00:09:45.897Z,13.18
2022-10-01T00:12:16.720Z,13.19
2022-10-01T00:14:45.984Z,13.17
2022-10-01T00:17:15.291Z,13.13
2022-10-01T00:19:44.529Z,13.11
2022-10-01T00:22:13.755Z,13.05
2022-10-01T00:24:42.993Z,13.03
2022-10-01T00:27:12.602Z,13.03
2022-10-01T00:29:44.300Z,13.04
2022-10-01T00:32:14.431Z,13.00
2022-10-01T00:34:43.747Z,13.02
2022-10-01T00:37:13.088Z,12.98
2022-10-01T00:39:42.456Z,12.93
2022-10-01T00:42:25.174Z,12.93
2022-10-01T00:44:54.835Z,12.94
2022-10-01T00:47:30.384Z,12.99
2022-10-01T00:50:07.103Z,12.98
2022-10-01T00:52:40.664Z,12.97
2022-10-01T00:55:14.742Z,12.99
2022-10-01T00:57:46.538Z,12.98
2022-10-01T01:00:16.509Z,12.94
2022-10-01T01:02:45.974Z,12.94
2022-10-01T01:05:16.102Z,12.94
2022-10-01T01:07:49.097Z,13.00
2022-10-01T01:10:22.264Z,12.98
2022-10-01T01:13:20.027Z,13.02
2022-10-01T01:16:07.498Z,13.02
2022-10-01T01:18:57.093Z,13.02
2022-10-01T01:21:35.472Z,13.02
2022-10-01T01:24:24.776Z,12.99
2022-10-01T01:27:26.221Z,12.98
2022-10-01T01:30:08.461Z,12.91
2022-10-01T01:32:46.482Z,12.83
2022-10-01T01:35:27.070Z,12.81
2022-10-01T01:38:01.823Z,12.78
2022-10-01T01:40:34.482Z,12.78
2022-10-01T01:43:07.867Z,12.77
2022-10-01T01:45:40.550Z,12.72
2022-10-01T01:48:13.064Z,12.76
2022-10-01T01:50:51.818Z,12.76
2022-10-01T01:53:22.039Z,12.73
2022-10-01T01:55:52.273Z,12.66
2022-10-01T01:58:24.215Z,12.63
2022-10-01T02:00:54.986Z,12.63
2022-10-01T02:03:31.869Z,12.59
2022-10-01T02:06:28.882Z,12.59
2022-10-01T02:09:11.423Z,12.62
2022-10-01T02:11:53.304Z,12.60
2022-10-01T02:14:50.731Z,12.65
2022-10-01T02:17:28.111Z,12.63
2022-10-01T02:20:29.156Z,12.64
2022-10-01T02:23:07.127Z,12.63
2022-10-01T02:25:42.661Z,12.63
2022-10-01T02:28:19.257Z,12.65
2022-10-01T02:30:50.382Z,12.67
2022-10-01T02:33:24.723Z,12.72
2022-10-01T02:35:56.345Z,12.73
2022-10-01T02:38:27.607Z,12.75
2022-10-01T02:41:01.527Z,12.73
2022-10-01T02:43:42.753Z,12.68
2022-10-01T02:46:30.583Z,12.66
2022-10-01T02:49:01.286Z,12.59
2022-10-01T02:51:39.379Z,12.65
2022-10-01T02:54:16.742Z,12.62
2022-10-01T02:56:58.709Z,12.61
2022-10-01T02:59:28.015Z,12.65
2022-10-01T03:02:00.264Z,12.67
2022-10-01T03:04:32.092Z,12.69
2022-10-01T03:07:03.996Z,12.67
2022-10-01T03:09:34.550Z,12.69
2022-10-01T03:12:04.200Z,12.68
2022-10-01T03:14:34.105Z,12.64
2022-10-01T03:17:03.570Z,12.69
2022-10-01T03:19:32.871Z,12.72
2022-10-01T03:22:04.925Z,12.79
2022-10-01T03:24:34.396Z,12.82
2022-10-01T03:27:03.794Z,12.72
2022-10-01T03:29:33.266Z,12.78
2022-10-01T03:32:03.194Z,12.81
2022-10-01T03:34:35.592Z,12.83
2022-10-01T03:37:04.941Z,12.84
2022-10-01T03:39:36.080Z,12.84
2022-10-01T03:42:06.462Z,12.87
2022-10-01T03:44:36.444Z,12.90
2022-10-01T03:47:05.794Z,12.87
2022-10-01T03:49:35.539Z,12.92
2022-10-01T03:52:06.598Z,12.96
2022-10-01T03:54:36.355Z,12.94
2022-10-01T03:57:06.072Z,12.97
2022-10-01T03:59:36.196Z,13.04
2022-10-01T04:02:05.630Z,12.99
2022-10-01T04:04:35.081Z,12.92
2022-10-01T04:07:04.447Z,13.05
2022-10-01T04:09:33.738Z,13.10
2022-10-01T04:12:03.412Z,13.11
2022-10-01T04:14:32.712Z,13.11
2022-10-01T04:17:04.863Z,13.13
2022-10-01T04:19:34.162Z,13.12
2022-10-01T04:22:03.486Z,13.17
2022-10-01T04:24:32.763Z,13.18
2022-10-01T04:27:02.994Z,13.24
2022-10-01T04:29:39.437Z,13.26
2022-10-01T04:32:09.556Z,13.28
2022-10-01T04:34:54.049Z,13.30
2022-10-01T04:37:24.555Z,13.28
2022-10-01T04:39:54.302Z,13.29
2022-10-01T04:42:24.635Z,13.32
2022-10-01T04:44:53.903Z,13.34
2022-10-01T04:47:23.175Z,13.39
2022-10-01T04:49:52.477Z,13.39
2022-10-01T04:52:21.768Z,13.41
2022-10-01T04:54:52.343Z,13.43
2022-10-01T04:57:22.568Z,13.52
2022-10-01T04:59:51.993Z,13.55
2022-10-01T05:02:21.399Z,13.53
2022-10-01T05:04:50.704Z,13.53
2022-10-01T05:07:19.980Z,13.60
2022-10-01T05:09:49.259Z,13.61
2022-10-01T05:12:23.687Z,13.64
2022-10-01T05:14:57.615Z,13.62
2022-10-01T05:17:27.074Z,13.69
2022-10-01T05:19:56.380Z,13.73
2022-10-01T05:22:25.643Z,13.70
2022-10-01T05:24:54.953Z,13.70
2022-10-01T05:27:24.253Z,13.72
2022-10-01T05:29:53.560Z,13.64
2022-10-01T05:32:22.861Z,13.82
2022-10-01T05:34:53.753Z,13.83
2022-10-01T05:37:23.521Z,13.79
2022-10-01T05:39:52.815Z,13.87
2022-10-01T05:42:22.093Z,13.90
2022-10-01T05:44:51.373Z,13.88
2022-10-01T05:47:21.593Z,13.91
2022-10-01T05:49:50.901Z,13.90
2022-10-01T05:52:20.241Z,14.02
2022-10-01T05:54:49.489Z,14.01
2022-10-01T05:57:18.741Z,14.05
2022-10-01T05:59:48.012Z,14.04
2022-10-01T06:02:17.437Z,14.10
2022-10-01T06:04:46.804Z,14.13
2022-10-01T06:07:16.160Z,14.11
2022-10-01T06:09:45.451Z,14.09
2022-10-01T06:12:19.572Z,14.14
2022-10-01T06:14:49.122Z,14.15
2022-10-01T06:17:18.410Z,14.21
2022-10-01T06:19:47.703Z,14.22
2022-10-01T06:22:16.962Z,14.25
2022-10-01T06:24:46.581Z,14.29
2022-10-01T06:27:15.995Z,14.30
2022-10-01T06:29:45.308Z,14.28
2022-10-01T06:32:19.770Z,14.35
2022-10-01T06:34:49.124Z,14.32
2022-10-01T06:37:18.511Z,14.40
2022-10-01T06:39:48.220Z,14.46
2022-10-01T06:42:17.482Z,14.47
2022-10-01T06:44:47.104Z,14.53
2022-10-01T06:47:16.382Z,14.59
2022-10-01T06:49:47.655Z,14.62
2022-10-01T06:52:30.109Z,14.67
2022-10-01T06:55:01.781Z,14.75
2022-10-01T06:57:34.114Z,14.83
2022-10-01T07:00:03.501Z,14.93
2022-10-01T07:02:33.013Z,14.96
2022-10-01T07:05:02.743Z,14.94
2022-10-01T07:07:37.236Z,15.09
2022-10-01T07:10:11.996Z,15.13
2022-10-01T07:12:41.716Z,15.18
2022-10-01T07:15:12.144Z,15.17
2022-10-01T07:17:49.842Z,15.29
2022-10-01T07:20:20.943Z,15.47
2022-10-01T07:22:51.858Z,15.52
2022-10-01T07:25:21.128Z,15.55
2022-10-01T07:27:50.441Z,15.47
2022-10-01T07:30:19.747Z,15.53
2022-10-01T07:32:48.983Z,15.50
2022-10-01T07:35:20.043Z,15.53
2022-10-01T07:37:55.387Z,15.71
2022-10-01T07:40:27.162Z,15.94
2022-10-01T07:42:58.901Z,15.98
2022-10-01T07:45:28.731Z,15.97
2022-10-01T07:47:59.988Z,15.91
2022-10-01T07:50:31.029Z,15.96
2022-10-01T07:53:02.139Z,16.06
2022-10-01T07:55:32.905Z,16.13
2022-10-01T07:58:02.805Z,16.17
2022-10-01T08:00:35.221Z,16.29
2022-10-01T08:03:04.433Z,16.45
2022-10-01T08:05:36.464Z,16.55
2022-10-01T08:08:09.446Z,16.53
2022-10-01T08:10:41.368Z,16.66
2022-10-01T08:13:24.798Z,16.67
2022-10-01T08:15:55.063Z,16.66
2022-10-01T08:18:26.174Z,16.58
2022-10-01T08:20:55.475Z,16.55
2022-10-01T08:23:24.943Z,16.52
2022-10-01T08:25:54.207Z,16.41
2022-10-01T08:28:23.467Z,16.36
2022-10-01T08:30:52.797Z,16.23
2022-10-01T08:33:22.254Z,16.32
2022-10-01T08:35:52.037Z,16.33
2022-10-01T08:38:22.264Z,16.34
2022-10-01T08:40:54.194Z,16.49
2022-10-01T08:43:42.771Z,16.59
2022-10-01T08:46:22.091Z,16.67
2022-10-01T08:48:57.630Z,16.86
2022-10-01T08:51:42.700Z,16.91
2022-10-01T08:54:39.823Z,17.01
2022-10-01T08:57:16.599Z,17.03
2022-10-01T08:59:48.775Z,17.10
2022-10-01T09:02:25.338Z,17.09
2022-10-01T09:05:02.913Z,17.09
2022-10-01T09:07:44.380Z,17.07
2022-10-01T09:10:42.237Z,17.12
2022-10-01T09:13:30.122Z,17.22
2022-10-01T09:16:03.650Z,17.31
2022-10-01T09:18:54.464Z,17.32
2022-10-01T09:21:52.707Z,17.31
2022-10-01T09:24:47.217Z,17.33
2022-10-01T09:27:18.130Z,17.43
2022-10-01T09:29:54.261Z,17.70
2022-10-01T09:32:29.603Z,17.97
2022-10-01T09:35:04.455Z,18.26
2022-10-01T09:37:48.463Z,18.56
2022-10-01T09:40:30.336Z,18.81
2022-10-01T09:43:00.780Z,18.97
2022-10-01T09:45:30.221Z,19.09
2022-10-01T09:48:05.925Z,19.31
2022-10-01T09:50:44.839Z,19.45
2022-10-01T09:53:20.116Z,19.61
2022-10-01T09:55:55.968Z,19.69
2022-10-01T09:58:29.118Z,19.85
2022-10-01T10:01:00.129Z,20.02
2022-10-01T10:03:34.413Z,20.09
2022-10-01T10:06:04.530Z,20.17
2022-10-01T10:08:39.591Z,20.23
2022-10-01T10:11:12.503Z,20.28
2022-10-01T10:13:54.099Z,20.39
2022-10-01T10:16:27.699Z,20.49
2022-10-01T10:19:19.766Z,20.63
2022-10-01T10:21:55.018Z,21.01
2022-10-01T10:24:29.172Z,21.09
2022-10-01T10:27:02.780Z,21.09
2022-10-01T10:29:41.166Z,21.09
2022-10-01T10:32:22.723Z,21.05
2022-10-01T10:34:53.203Z,20.98
2022-10-01T10:37:28.683Z,20.68
2022-10-01T10:39:59.285Z,20.41
2022-10-01T10:42:28.994Z,20.20
2022-10-01T10:45:04.433Z,20.06
2022-10-01T10:47:33.773Z,19.88
2022-10-01T10:50:07.308Z,19.57
2022-10-01T10:52:44.945Z,19.30
2022-10-01T10:55:34.043Z,19.14
2022-10-01T10:58:14.493Z,19.06
2022-10-01T11:00:51.311Z,19.06
2022-10-01T11:03:27.184Z,19.12
2022-10-01T11:05:57.412Z,19.20
2022-10-01T11:08:29.018Z,19.37
2022-10-01T11:11:09.439Z,19.70
2022-10-01T11:13:42.316Z,20.13
2022-10-01T11:16:30.195Z,20.45
2022-10-01T11:19:36.680Z,20.60
2022-10-01T11:22:32.153Z,20.88
2022-10-01T11:25:27.150Z,20.93
2022-10-01T11:28:14.391Z,20.87
2022-10-01T11:31:19.287Z,20.84
2022-10-01T11:34:16.698Z,20.84
2022-10-01T11:37:11.961Z,20.85
2022-10-01T11:39:44.892Z,20.76
2022-10-01T11:42:22.150Z,20.65
2022-10-01T11:45:00.506Z,20.65
2022-10-01T11:47:44.264Z,20.81
2022-10-01T11:50:25.260Z,21.13
2022-10-01T11:53:00.650Z,21.03
2022-10-01T11:55:48.787Z,21.15
2022-10-01T11:58:39.513Z,21.24
2022-10-01T12:01:50.471Z,21.24
2022-10-01T12:04:35.706Z,21.56
2022-10-01T12:07:30.646Z,21.76
2022-10-01T12:10:19.170Z,21.80
2022-10-01T12:12:54.430Z,21.67
2022-10-01T12:15:29.620Z,21.59
2022-10-01T12:18:16.840Z,21.31
2022-10-01T12:20:51.412Z,21.10
2022-10-01T12:23:25.456Z,20.72
2022-10-01T12:26:14.975Z,20.26
2022-10-01T12:29:00.001Z,19.84
2022-10-01T12:31:36.290Z,19.21
2022-10-01T12:34:14.601Z,18.50
2022-10-01T12:37:10.357Z,18.10
2022-10-01T12:40:09.097Z,17.87
2022-10-01T12:43:04.515Z,17.73
2022-10-01T12:45:51.856Z,17.74
2022-10-01T12:48:39.046Z,17.70
2022-10-01T12:51:18.435Z,17.80
2022-10-01T12:54:03.794Z,18.18
2022-10-01T12:56:47.130Z,18.59
2022-10-01T12:59:59.329Z,19.01
2022-10-01T13:02:53.353Z,19.10
2022-10-01T13:05:45.631Z,18.90
2022-10-01T13:08:20.680Z,18.95
2022-10-01T13:11:20.821Z,19.16
2022-10-01T13:13:55.067Z,19.28
2022-10-01T13:16:44.612Z,19.44
2022-10-01T13:19:26.660Z,19.58
2022-10-01T13:22:21.405Z,19.71
2022-10-01T13:25:00.931Z,19.77
2022-10-01T13:27:47.016Z,19.89
2022-10-01T13:30:29.620Z,19.90
2022-10-01T13:33:01.694Z,19.88
2022-10-01T13:35:39.274Z,19.93
2022-10-01T13:38:48.079Z,19.90
2022-10-01T13:41:23.497Z,19.89
2022-10-01T13:43:59.854Z,19.89
2022-10-01T13:46:34.586Z,19.79
2022-10-01T13:49:22.508Z,19.66
2022-10-01T13:51:52.598Z,19.52
2022-10-01T13:54:35.483Z,19.38
2022-10-01T13:57:30.820Z,19.22
2022-10-01T14:00:19.791Z,19.13
2022-10-01T14:03:04.323Z,19.07
2022-10-01T14:05:45.936Z,19.11
2022-10-01T14:08:25.883Z,19.21
2022-10-01T14:11:16.370Z,19.23
2022-10-01T14:14:02.766Z,19.33
2022-10-01T14:16:34.094Z,19.38
2022-10-01T14:19:03.891Z,19.49
2022-10-01T14:21:51.977Z,19.58
2022-10-01T14:24:52.680Z,19.56
2022-10-01T14:27:44.169Z,19.55
2022-10-01T14:30:26.202Z,19.45
2022-10-01T14:33:17.180Z,19.28
2022-10-01T14:35:58.580Z,19.11
2022-10-01T14:38:28.152Z,19.04
2022-10-01T14:40:57.496Z,18.97
2022-10-01T14:43:29.320Z,19.03
2022-10-01T14:46:07.738Z,19.06
2022-10-01T14:48:40.339Z,19.11
2022-10-01T14:51:24.967Z,19.10
2022-10-01T14:53:56.120Z,19.14
2022-10-01T14:56:26.538Z,19.10
2022-10-01T14:59:07.250Z,19.14
2022-10-01T15:01:37.336Z,19.17
2022-10-01T15:04:17.406Z,19.17
2022-10-01T15:06:46.765Z,19.14
2022-10-01T15:09:19.571Z,19.09
2022-10-01T15:11:54.223Z,19.13
2022-10-01T15:14:27.100Z,19.17
2022-10-01T15:16:56.542Z,19.14
2022-10-01T15:19:26.406Z,19.18
2022-10-01T15:21:59.093Z,19.09
2022-10-01T15:24:47.751Z,19.31
2022-10-01T15:27:20.490Z,19.35
2022-10-01T15:29:56.503Z,19.35
2022-10-01T15:32:28.100Z,19.40
2022-10-01T15:35:00.688Z,19.40
2022-10-01T15:37:36.478Z,19.29
2022-10-01T15:40:10.028Z,19.20
2022-10-01T15:42:40.642Z,19.11
2022-10-01T15:45:10.468Z,19.08
2022-10-01T15:47:52.231Z,19.01
2022-10-01T15:50:32.424Z,18.97
2022-10-01T15:53:10.599Z,18.91
2022-10-01T15:55:52.382Z,18.89
2022-10-01T15:58:31.756Z,18.89
2022-10-01T16:01:10.777Z,18.86
2022-10-01T16:03:44.351Z,18.85
2022-10-01T16:06:23.782Z,18.84
2022-10-01T16:09:13.265Z,18.78
2022-10-01T16:11:58.549Z,18.80
2022-10-01T16:14:30.796Z,18.74
2022-10-01T16:17:18.836Z,18.71
2022-10-01T16:19:56.763Z,18.63
2022-10-01T16:22:37.623Z,18.59
2022-10-01T16:25:23.294Z,18.53
2022-10-01T16:27:55.120Z,18.51
2022-10-01T16:30:27.028Z,18.48
2022-10-01T16:33:04.458Z,18.40
2022-10-01T16:35:35.984Z,18.36
2022-10-01T16:38:08.351Z,18.27
2022-10-01T16:40:41.003Z,18.21
2022-10-01T16:43:17.565Z,18.10
2022-10-01T16:45:47.322Z,18.01
2022-10-01T16:48:22.388Z,17.98
2022-10-01T16:50:53.636Z,17.89
2022-10-01T16:53:24.834Z,17.82
2022-10-01T16:55:56.018Z,17.76
2022-10-01T16:58:25.262Z,17.69
2022-10-01T17:00:54.666Z,17.71
2022-10-01T17:03:25.034Z,17.61
2022-10-01T17:05:54.308Z,17.54
2022-10-01T17:08:23.542Z,17.45
2022-10-01T17:10:58.640Z,17.41
2022-10-01T17:13:29.879Z,17.31
2022-10-01T17:15:59.243Z,17.28
2022-10-01T17:18:28.604Z,17.18
2022-10-01T17:20:59.630Z,17.18
2022-10-01T17:23:28.917Z,17.13
2022-10-01T17:25:58.283Z,17.03
2022-10-01T17:28:27.692Z,17.03
2022-10-01T17:30:57.203Z,16.99
2022-10-01T17:33:28.405Z,16.91
2022-10-01T17:35:57.741Z,16.88
2022-10-01T17:38:27.327Z,16.83
2022-10-01T17:40:57.016Z,16.71
2022-10-01T17:43:26.602Z,16.70
2022-10-01T17:46:00.775Z,16.65
2022-10-01T17:48:31.472Z,16.58
2022-10-01T17:51:10.039Z,16.50
2022-10-01T17:53:42.515Z,16.39
2022-10-01T17:56:22.366Z,16.33
2022-10-01T17:58:51.744Z,16.21
2022-10-01T18:01:22.875Z,16.15
2022-10-01T18:04:00.211Z,16.09
2022-10-01T18:06:30.393Z,16.05
2022-10-01T18:08:59.666Z,15.98
2022-10-01T18:11:30.942Z,15.90
2022-10-01T18:14:01.183Z,15.81
2022-10-01T18:16:32.145Z,15.71
2022-10-01T18:21:52.431Z,15.58
2022-10-01T18:24:21.764Z,15.54
2022-10-01T18:26:51.239Z,15.41
2022-10-01T18:29:27.071Z,15.42
2022-10-01T18:32:17.904Z,15.37
2022-10-01T18:35:08.659Z,15.37
2022-10-01T18:37:49.088Z,15.33
2022-10-01T18:40:20.235Z,15.31
2022-10-01T18:43:03.236Z,15.25
2022-10-01T18:45:50.493Z,15.23
2022-10-01T18:48:45.469Z,15.16
2022-10-01T18:51:42.663Z,15.14
2022-10-01T18:54:42.844Z,15.11
2022-10-01T18:57:20.886Z,15.13
2022-10-01T19:00:21.378Z,15.10
2022-10-01T19:03:27.736Z,15.08
2022-10-01T19:06:27.539Z,15.04
2022-10-01T19:09:06.351Z,15.04
2022-10-01T19:12:02.424Z,15.09
2022-10-01T19:14:46.596Z,15.07
2022-10-01T19:17:43.819Z,15.13
2022-10-01T19:20:30.259Z,15.10
2022-10-01T19:23:27.653Z,15.07
2022-10-01T19:26:10.313Z,15.05
2022-10-01T19:28:42.923Z,14.99
2022-10-01T19:31:22.415Z,14.93
2022-10-01T19:33:58.926Z,14.86
2022-10-01T19:36:37.142Z,14.85
2022-10-01T19:39:13.511Z,14.81
2022-10-01T19:41:54.075Z,14.75
2022-10-01T19:45:05.273Z,14.75
2022-10-01T19:47:43.601Z,14.74
2022-10-01T19:50:25.038Z,14.73
2022-10-01T19:52:58.255Z,14.68
2022-10-01T19:55:37.685Z,14.75
2022-10-01T19:58:20.155Z,14.69
2022-10-01T20:00:57.278Z,14.69
2022-10-01T20:03:50.182Z,14.69
2022-10-01T20:06:27.807Z,14.68
2022-10-01T20:09:02.912Z,14.65
2022-10-01T20:11:38.475Z,14.68
2022-10-01T20:14:48.596Z,14.64
2022-10-01T20:17:32.767Z,14.66
2022-10-01T20:20:16.217Z,14.62
2022-10-01T20:23:11.125Z,14.59
2022-10-01T20:26:11.307Z,14.54
2022-10-01T20:28:52.851Z,14.55
2022-10-01T20:31:32.382Z,14.46
2022-10-01T20:34:12.408Z,14.51
2022-10-01T20:36:51.063Z,14.49
2022-10-01T20:39:26.618Z,14.46
2022-10-01T20:41:57.500Z,14.42
2022-10-01T20:44:31.823Z,14.40
2022-10-01T20:47:27.958Z,14.37
2022-10-01T20:50:14.820Z,14.33
2022-10-01T20:52:55.251Z,14.27
2022-10-01T20:55:31.963Z,14.33
2022-10-01T20:58:06.533Z,14.33
2022-10-01T21:00:37.508Z,14.30
2022-10-01T21:03:32.194Z,14.30
2022-10-01T21:06:21.155Z,14.21
2022-10-01T21:09:28.981Z,14.28
2022-10-01T21:12:07.924Z,14.28
2022-10-01T21:14:44.403Z,14.22
2022-10-01T21:17:44.749Z,14.17
2022-10-01T21:20:32.235Z,14.14
2022-10-01T21:23:36.310Z,14.11
2022-10-01T21:26:11.692Z,14.09
2022-10-01T21:29:05.701Z,14.08
2022-10-01T21:31:53.892Z,14.05
2022-10-01T21:35:07.459Z,14.02
2022-10-01T21:37:43.206Z,14.00
2022-10-01T21:40:43.986Z,13.92
2022-10-01T21:43:37.203Z,13.96
2022-10-01T21:46:18.406Z,13.97
2022-10-01T21:49:07.324Z,13.95
2022-10-01T21:52:12.134Z,13.97
2022-10-01T21:54:56.307Z,13.97
2022-10-01T21:57:36.094Z,13.96
2022-10-01T22:00:24.846Z,14.00
2022-10-01T22:03:04.115Z,13.97
2022-10-01T22:05:37.378Z,14.00
2022-10-01T22:08:26.371Z,14.02
2022-10-01T22:10:59.755Z,14.01
2022-10-01T22:13:37.733Z,14.04
2022-10-01T22:16:15.366Z,14.00
2022-10-01T22:18:52.954Z,13.99
2022-10-01T22:21:30.917Z,14.00
2022-10-01T22:24:11.447Z,13.89
2022-10-01T22:26:47.753Z,13.97
2022-10-01T22:29:22.051Z,13.94
2022-10-01T22:31:56.826Z,13.93
2022-10-01T22:34:35.767Z,13.94
2022-10-01T22:37:11.652Z,13.89
2022-10-01T22:39:50.707Z,13.92
2022-10-01T22:42:30.361Z,13.92
2022-10-01T22:45:05.327Z,13.92
2022-10-01T22:47:39.617Z,13.93
2022-10-01T22:50:39.263Z,13.91
2022-10-01T22:53:23.230Z,13.92
2022-10-01T22:55:59.999Z,13.98
2022-10-01T22:58:51.943Z,13.98
2022-10-01T23:01:49.237Z,13.99
2022-10-01T23:04:37.151Z,13.97
2022-10-01T23:07:14.382Z,13.99
2022-10-01T23:10:16.353Z,14.05
2022-10-01T23:13:00.565Z,14.07
2022-10-01T23:15:44.379Z,14.02
2022-10-01T23:18:35.247Z,14.13
2022-10-01T23:21:33.525Z,14.19
2022-10-01T23:24:09.727Z,14.19
2022-10-01T23:26:54.158Z,14.24
2022-10-01T23:29:52.549Z,14.24
2022-10-01T23:32:51.135Z,14.27
2022-10-01T23:35:28.001Z,14.33
2022-10-01T23:38:22.217Z,14.38
2022-10-01T23:40:54.657Z,14.41
2022-10-01T23:43:32.731Z,14.43
2022-10-01T23:46:04.678Z,14.54
2022-10-01T23:48:42.322Z,14.54
2022-10-01T23:51:33.675Z,14.56
2022-10-01T23:54:22.060Z,14.61
2022-10-01T23:57:19.371Z,14.64
2022-10-01T23:59:55.179Z,14.79
